createdAt,value
2017-04-18T00:00:47.883Z,0
2017-04-18T00:01:57.881Z,0
2017-04-18T00:03:08.210Z,0
2017-04-18T00:04:18.546Z,0
2017-04-18T00:05:28.885Z,0
2017-04-18T00:06:39.225Z,0
2017-04-18T00:07:49.556Z,0
2017-04-18T00:08:59.877Z,0
2017-04-18T00:10:10.213Z,0
2017-04-18T00:11:20.225Z,0
2017-04-18T00:12:29.930Z,0
2017-04-18T00:13:40.270Z,0
2017-04-18T00:14:50.612Z,0
2017-04-18T00:16:00.934Z,0
2017-04-18T00:17:11.253Z,0
2017-04-18T00:18:21.271Z,0
2017-04-18T00:19:31.542Z,0
2017-04-18T00:20:41.854Z,0
2017-04-18T00:21:51.887Z,0
2017-04-18T00:23:02.217Z,0
2017-04-18T00:24:12.539Z,0
2017-04-18T00:25:22.863Z,0
2017-04-18T00:26:33.183Z,0
2017-04-18T00:27:43.514Z,0
2017-04-18T00:28:53.858Z,0
2017-04-18T00:30:04.203Z,0
2017-04-18T00:31:13.914Z,0
2017-04-18T00:32:24.246Z,0
2017-04-18T00:33:33.627Z,0
2017-04-18T00:34:43.960Z,0
2017-04-18T00:35:53.980Z,0
2017-04-18T00:37:03.989Z,0
2017-04-18T00:38:14.050Z,0
2017-04-18T00:39:24.381Z,0
2017-04-18T00:40:34.462Z,0
2017-04-18T00:41:44.496Z,0
2017-04-18T00:42:54.555Z,0
2017-04-18T00:44:04.590Z,0
2017-04-18T00:45:14.292Z,0
2017-04-18T00:46:24.620Z,0
2017-04-18T00:47:34.938Z,0
2017-04-18T00:48:45.259Z,0
2017-04-18T00:49:55.576Z,0
2017-04-18T00:51:05.598Z,0
2017-04-18T00:52:15.929Z,0
2017-04-18T00:53:26.226Z,0
2017-04-18T00:54:36.557Z,0
2017-04-18T00:55:46.726Z,0
2017-04-18T00:56:57.287Z,0
2017-04-18T00:58:07.616Z,0
2017-04-18T00:59:17.961Z,0
2017-04-18T01:00:27.972Z,0
2017-04-18T01:01:37.984Z,0
2017-04-18T01:02:48.312Z,0
2017-04-18T01:03:58.012Z,0
2017-04-18T01:05:08.040Z,0
2017-04-18T01:06:17.792Z,0
2017-04-18T01:07:27.817Z,0
2017-04-18T01:08:37.864Z,0
2017-04-18T01:09:48.185Z,0
2017-04-18T01:10:58.508Z,0
2017-04-18T01:12:08.838Z,0
2017-04-18T01:13:19.178Z,0
2017-04-18T01:14:29.509Z,0
2017-04-18T01:15:39.534Z,0
2017-04-18T01:16:49.855Z,0
2017-04-18T01:18:00.209Z,0
2017-04-18T01:19:10.544Z,0
2017-04-18T01:20:20.576Z,0
2017-04-18T01:21:30.904Z,0
2017-04-18T01:22:41.264Z,0
2017-04-18T01:23:51.336Z,0
2017-04-18T01:25:01.673Z,0
2017-04-18T01:26:12.032Z,0
2017-04-18T01:27:22.363Z,0
2017-04-18T01:28:32.397Z,0
2017-04-18T01:29:43.019Z,0
2017-04-18T01:30:53.519Z,0
2017-04-18T01:32:03.968Z,0
2017-04-18T01:33:14.472Z,0
2017-04-18T01:34:24.495Z,0
2017-04-18T01:35:34.815Z,0
2017-04-18T01:36:44.850Z,0
2017-04-18T01:37:54.796Z,0
2017-04-18T01:39:05.109Z,0
2017-04-18T01:40:15.431Z,0
2017-04-18T01:41:25.779Z,0
2017-04-18T01:42:35.817Z,0
2017-04-18T01:43:45.838Z,0
2017-04-18T01:44:56.207Z,0
2017-04-18T01:46:06.559Z,0
2017-04-18T01:47:16.886Z,0
2017-04-18T01:48:27.218Z,0
2017-04-18T01:49:37.236Z,0
2017-04-18T01:50:47.253Z,0
2017-04-18T01:51:57.260Z,0
2017-04-18T01:53:07.646Z,0
2017-04-18T01:54:17.981Z,0
2017-04-18T01:55:28.469Z,0
2017-04-18T01:56:38.805Z,0
2017-04-18T01:57:48.822Z,0
2017-04-18T01:58:58.853Z,0
2017-04-18T02:00:08.886Z,0
2017-04-18T02:01:19.207Z,0
2017-04-18T02:02:28.910Z,0
2017-04-18T02:03:39.257Z,0
2017-04-18T02:04:49.017Z,0
2017-04-18T02:05:58.721Z,0
2017-04-18T02:07:09.085Z,0
2017-04-18T02:08:19.500Z,0
2017-04-18T02:09:29.895Z,0
2017-04-18T02:10:40.447Z,0
2017-04-18T02:11:50.822Z,0
2017-04-18T02:13:01.428Z,0
2017-04-18T02:14:11.480Z,0
2017-04-18T02:15:21.811Z,0
2017-04-18T02:16:31.854Z,0
2017-04-18T02:17:42.226Z,0
2017-04-18T02:18:52.558Z,0
2017-04-18T02:20:02.922Z,0
2017-04-18T02:21:12.625Z,0
2017-04-18T02:22:22.644Z,0
2017-04-18T02:23:32.653Z,0
2017-04-18T02:24:42.652Z,0
2017-04-18T02:25:52.659Z,0
2017-04-18T02:27:02.980Z,0
2017-04-18T02:28:13.291Z,0
2017-04-18T02:29:23.640Z,0
2017-04-18T02:30:33.647Z,0
2017-04-18T02:31:43.967Z,0
2017-04-18T02:32:54.294Z,0
2017-04-18T02:34:04.636Z,0
2017-04-18T02:35:14.642Z,0
2017-04-18T02:36:24.649Z,0
2017-04-18T02:37:34.691Z,0
2017-04-18T02:38:45.019Z,0
2017-04-18T02:39:55.394Z,0
2017-04-18T02:41:05.087Z,0
2017-04-18T02:42:15.402Z,0
2017-04-18T02:43:25.432Z,0
2017-04-18T02:44:35.759Z,0
2017-04-18T02:45:46.107Z,0
2017-04-18T02:46:56.433Z,0
2017-04-18T02:48:06.804Z,0
2017-04-18T02:49:17.131Z,0
2017-04-18T02:50:27.445Z,0
2017-04-18T02:51:37.450Z,0
2017-04-18T02:52:47.468Z,0
2017-04-18T02:53:57.490Z,0
2017-04-18T02:55:08.095Z,0
2017-04-18T02:56:18.742Z,0
2017-04-18T02:57:28.779Z,0
2017-04-18T02:58:39.097Z,0
2017-04-18T02:59:49.432Z,0
2017-04-18T03:00:59.765Z,0
2017-04-18T03:32:37.140Z,4
2017-04-18T03:33:46.829Z,4
2017-04-18T03:34:57.151Z,4
2017-04-18T03:36:07.171Z,4
2017-04-18T03:37:17.487Z,8
2017-04-18T03:38:27.813Z,8
2017-04-18T03:39:37.837Z,12
2017-04-18T03:40:48.171Z,12
2017-04-18T03:41:58.486Z,12
2017-04-18T03:43:07.888Z,20
2017-04-18T03:44:18.195Z,24
2017-04-18T03:45:28.219Z,28
2017-04-18T03:46:38.221Z,32
2017-04-18T03:47:48.540Z,40
2017-04-18T03:48:58.566Z,44
2017-04-18T03:50:08.897Z,52
2017-04-18T03:51:18.930Z,60
2017-04-18T03:52:29.284Z,72
2017-04-18T03:53:38.995Z,80
2017-04-18T03:54:49.331Z,92
2017-04-18T03:55:59.672Z,104
2017-04-18T03:57:09.983Z,120
2017-04-18T03:58:20.306Z,136
2017-04-18T03:59:30.635Z,152
2017-04-18T04:00:40.994Z,172
2017-04-18T04:01:51.334Z,188
2017-04-18T04:03:01.666Z,212
2017-04-18T04:04:11.992Z,236
2017-04-18T04:05:22.325Z,260
2017-04-18T04:06:32.362Z,288
2017-04-18T04:07:42.758Z,312
2017-04-18T04:08:52.773Z,340
2017-04-18T04:10:03.140Z,372
2017-04-18T04:11:13.617Z,404
2017-04-18T04:12:24.059Z,444
2017-04-18T04:13:33.948Z,484
2017-04-18T04:14:44.278Z,532
2017-04-18T04:15:54.599Z,572
2017-04-18T04:17:04.622Z,612
2017-04-18T04:18:14.644Z,596
2017-04-18T04:19:24.652Z,1244
2017-04-18T04:20:34.977Z,752
2017-04-18T04:21:44.994Z,872
2017-04-18T04:22:55.016Z,1236
2017-04-18T04:24:05.353Z,1712
2017-04-18T04:25:15.386Z,2264
2017-04-18T04:26:25.716Z,2448
2017-04-18T04:27:36.046Z,1912
2017-04-18T04:28:46.385Z,1116
2017-04-18T04:29:56.721Z,1656
2017-04-18T04:31:07.046Z,2988
2017-04-18T04:32:17.375Z,4032
2017-04-18T04:33:27.701Z,4520
2017-04-18T04:34:38.007Z,4836
2017-04-18T04:35:48.354Z,5096
2017-04-18T04:36:58.732Z,5320
2017-04-18T04:38:09.069Z,5628
2017-04-18T04:39:19.434Z,5984
2017-04-18T04:40:29.761Z,6184
2017-04-18T04:41:39.462Z,6212
2017-04-18T04:42:49.790Z,6432
2017-04-18T04:43:59.795Z,6696
2017-04-18T04:45:09.498Z,6856
2017-04-18T04:46:19.214Z,6884
2017-04-18T04:47:29.551Z,7084
2017-04-18T04:48:39.919Z,7380
2017-04-18T04:49:50.259Z,7604
2017-04-18T04:51:00.592Z,7904
2017-04-18T04:52:10.924Z,7268
2017-04-18T04:53:21.242Z,5544
2017-04-18T04:54:31.575Z,3872
2017-04-18T04:55:41.827Z,7704
2017-04-18T04:56:52.673Z,8088
2017-04-18T04:58:03.276Z,8668
2017-04-18T04:59:13.634Z,9012
2017-04-18T05:00:23.334Z,9192
2017-04-18T05:01:33.673Z,9164
2017-04-18T05:02:43.691Z,9540
2017-04-18T05:03:54.066Z,9960
2017-04-18T05:05:04.403Z,10252
2017-04-18T05:06:14.436Z,10596
2017-04-18T05:07:24.806Z,10784
2017-04-18T05:08:35.141Z,10764
2017-04-18T05:09:45.470Z,10980
2017-04-18T05:10:55.477Z,10976
2017-04-18T05:12:05.807Z,10956
2017-04-18T05:13:16.147Z,11120
2017-04-18T05:14:26.486Z,11356
2017-04-18T05:15:36.819Z,11260
2017-04-18T05:16:47.145Z,11408
2017-04-18T05:17:57.161Z,11284
2017-04-18T05:19:06.880Z,11352
2017-04-18T05:20:17.216Z,11076
2017-04-18T05:21:27.543Z,10944
2017-04-18T05:22:37.864Z,8940
2017-04-18T05:23:48.296Z,4824
2017-04-18T05:24:58.307Z,3352
2017-04-18T05:26:08.639Z,3216
2017-04-18T05:27:18.660Z,3212
2017-04-18T05:28:28.669Z,3264
2017-04-18T05:29:39.003Z,3748
2017-04-18T05:30:49.019Z,7580
2017-04-18T05:31:59.382Z,6628
2017-04-18T05:33:09.735Z,7188
2017-04-18T05:34:19.787Z,4928
2017-04-18T05:35:30.118Z,4844
2017-04-18T05:36:40.130Z,9204
2017-04-18T05:37:50.141Z,8224
2017-04-18T05:39:00.478Z,4812
2017-04-18T05:40:10.829Z,3464
2017-04-18T05:41:21.158Z,3420
2017-04-18T05:42:31.487Z,3452
2017-04-18T05:43:41.528Z,3500
2017-04-18T05:44:51.877Z,3596
2017-04-18T05:46:02.212Z,3640
2017-04-18T05:47:12.652Z,3720
2017-04-18T05:48:23.076Z,3884
2017-04-18T05:49:33.012Z,4172
2017-04-18T05:50:42.986Z,4832
2017-04-18T05:51:53.112Z,5596
2017-04-18T05:53:02.820Z,6304
2017-04-18T05:54:12.844Z,6072
2017-04-18T05:55:23.167Z,6576
2017-04-18T05:56:33.182Z,5992
2017-04-18T05:57:43.196Z,6116
2017-04-18T05:58:53.527Z,6300
2017-04-18T06:00:03.575Z,7612
2017-04-18T06:01:13.908Z,6004
2017-04-18T06:02:23.938Z,5204
2017-04-18T06:03:34.263Z,5184
2017-04-18T06:04:44.591Z,5188
2017-04-18T06:05:54.927Z,5304
2017-04-18T06:07:04.952Z,5400
2017-04-18T06:08:15.280Z,5480
2017-04-18T06:09:25.307Z,5540
2017-04-18T06:10:35.625Z,5556
2017-04-18T06:11:45.949Z,5520
2017-04-18T06:12:56.273Z,5556
2017-04-18T06:14:06.617Z,5576
2017-04-18T06:15:16.024Z,5568
2017-04-18T06:16:26.036Z,5592
2017-04-18T06:17:36.053Z,5476
2017-04-18T06:18:46.071Z,5340
2017-04-18T06:19:56.412Z,5152
2017-04-18T06:21:06.439Z,5008
2017-04-18T06:22:16.770Z,4884
2017-04-18T06:23:26.482Z,4764
2017-04-18T06:24:36.809Z,4656
2017-04-18T06:25:46.833Z,4544
2017-04-18T06:26:56.837Z,4436
2017-04-18T06:28:07.156Z,4360
2017-04-18T06:29:17.485Z,4300
2017-04-18T06:30:27.509Z,4376
2017-04-18T06:31:37.834Z,4412
2017-04-18T06:32:48.161Z,4320
2017-04-18T06:33:58.192Z,4500
2017-04-18T06:35:08.544Z,4632
2017-04-18T06:36:18.882Z,4808
2017-04-18T06:37:29.218Z,4968
2017-04-18T06:38:39.535Z,5016
2017-04-18T06:39:49.889Z,5044
2017-04-18T06:41:00.232Z,5116
2017-04-18T06:42:10.251Z,5176
2017-04-18T06:43:20.267Z,5220
2017-04-18T06:44:30.294Z,5220
2017-04-18T06:45:40.630Z,5220
2017-04-18T06:46:50.967Z,5216
2017-04-18T06:48:01.602Z,5188
2017-04-18T06:49:11.933Z,5148
2017-04-18T06:50:22.507Z,5148
2017-04-18T06:51:32.517Z,5136
2017-04-18T06:52:42.884Z,5216
2017-04-18T06:53:53.230Z,5312
2017-04-18T06:55:03.302Z,5420
2017-04-18T06:56:13.310Z,5500
2017-04-18T06:57:23.652Z,5676
2017-04-18T06:58:33.669Z,6136
2017-04-18T06:59:43.682Z,6060
2017-04-18T07:00:54.008Z,6100
2017-04-18T07:02:03.710Z,6388
2017-04-18T07:03:14.043Z,6264
2017-04-18T07:04:24.069Z,6232
2017-04-18T07:05:34.398Z,6584
2017-04-18T07:06:44.431Z,6548
2017-04-18T07:07:54.453Z,6652
2017-04-18T07:09:04.782Z,6600
2017-04-18T07:10:15.113Z,6960
2017-04-18T07:11:25.481Z,7180
2017-04-18T07:12:35.821Z,7112
2017-04-18T07:13:46.158Z,7572
2017-04-18T07:14:56.490Z,8008
2017-04-18T07:16:06.509Z,7052
2017-04-18T07:17:16.571Z,8744
2017-04-18T07:18:26.605Z,8108
2017-04-18T07:19:36.940Z,6132
2017-04-18T07:20:46.961Z,6988
2017-04-18T07:21:56.992Z,5236
2017-04-18T07:23:07.057Z,5316
2017-04-18T07:24:17.416Z,6488
2017-04-18T07:25:27.746Z,6456
2017-04-18T07:26:38.091Z,6700
2017-04-18T07:27:48.138Z,7040
2017-04-18T07:28:58.475Z,7172
2017-04-18T07:30:08.812Z,7544
2017-04-18T07:31:19.253Z,7836
2017-04-18T07:32:29.564Z,8028
2017-04-18T07:33:39.894Z,8232
2017-04-18T07:34:50.224Z,8480
2017-04-18T07:36:00.270Z,8384
2017-04-18T07:37:10.617Z,8496
2017-04-18T07:38:20.728Z,8468
2017-04-18T07:39:30.760Z,8812
2017-04-18T07:40:40.776Z,7152
2017-04-18T07:41:50.482Z,9520
2017-04-18T07:43:00.821Z,10040
2017-04-18T07:44:11.210Z,9976
2017-04-18T07:45:21.272Z,9500
2017-04-18T07:46:31.290Z,7240
2017-04-18T07:47:41.307Z,10028
2017-04-18T07:48:51.654Z,10876
2017-04-18T07:50:01.986Z,8584
2017-04-18T07:51:12.318Z,8736
2017-04-18T07:52:22.667Z,8456
2017-04-18T07:53:32.700Z,8384
2017-04-18T07:54:43.039Z,10292
2017-04-18T07:55:53.368Z,10112
2017-04-18T07:57:03.087Z,10112
2017-04-18T07:58:13.433Z,7744
2017-04-18T07:59:23.761Z,8016
2017-04-18T08:00:34.081Z,7936
2017-04-18T08:01:44.114Z,9628
2017-04-18T08:02:54.452Z,8688
2017-04-18T08:04:04.785Z,7692
2017-04-18T08:05:14.836Z,6764
2017-04-18T08:06:25.174Z,6300
2017-04-18T08:07:35.178Z,6068
2017-04-18T08:08:45.247Z,6060
2017-04-18T08:09:55.715Z,6576
2017-04-18T08:11:05.727Z,6920
2017-04-18T08:12:15.749Z,7040
2017-04-18T08:13:25.159Z,6512
2017-04-18T08:14:35.503Z,7652
2017-04-18T08:15:45.836Z,8920
2017-04-18T08:16:56.204Z,9776
2017-04-18T08:18:06.254Z,10064
2017-04-18T08:19:16.329Z,8596
2017-04-18T08:20:26.663Z,7244
2017-04-18T08:21:37.006Z,7140
2017-04-18T08:22:47.027Z,8232
2017-04-18T08:23:57.367Z,8212
2017-04-18T08:25:07.705Z,5512
2017-04-18T08:26:17.758Z,8004
2017-04-18T08:27:27.772Z,6888
2017-04-18T08:28:38.126Z,7564
2017-04-18T08:29:48.152Z,7720
2017-04-18T08:30:58.475Z,7908
2017-04-18T08:32:08.199Z,8044
2017-04-18T08:33:18.552Z,8228
2017-04-18T08:34:28.893Z,7056
2017-04-18T08:35:38.921Z,8360
2017-04-18T08:36:48.638Z,8704
2017-04-18T08:37:59.023Z,8816
2017-04-18T08:39:09.458Z,8792
2017-04-18T08:40:19.903Z,9000
2017-04-18T08:41:30.237Z,9088
2017-04-18T08:42:40.590Z,9288
2017-04-18T08:43:50.649Z,6548
2017-04-18T08:45:00.366Z,7492
2017-04-18T08:46:10.688Z,11220
2017-04-18T08:47:20.409Z,10348
2017-04-18T08:48:30.761Z,8008
2017-04-18T08:49:40.807Z,11296
2017-04-18T08:50:50.815Z,7964
2017-04-18T08:52:01.160Z,7924
2017-04-18T08:53:11.188Z,10456
2017-04-18T08:54:21.515Z,7936
2017-04-18T08:55:31.862Z,8568
2017-04-18T08:56:41.886Z,7948
2017-04-18T08:57:52.254Z,7636
2017-04-18T08:59:02.327Z,7716
2017-04-18T09:00:12.654Z,10776
2017-04-18T09:01:22.698Z,9852
2017-04-18T09:02:33.034Z,7996
2017-04-18T09:03:43.368Z,8048
2017-04-18T09:04:53.410Z,10496
2017-04-18T09:06:03.457Z,8944
2017-04-18T09:07:13.488Z,9784
2017-04-18T09:08:23.628Z,7984
2017-04-18T09:09:33.968Z,9632
2017-04-18T09:10:43.987Z,7732
2017-04-18T09:11:54.010Z,7904
2017-04-18T09:13:04.057Z,9448
2017-04-18T09:14:14.391Z,10348
2017-04-18T09:15:24.741Z,8204
2017-04-18T09:16:35.097Z,6968
2017-04-18T09:17:45.447Z,7124
2017-04-18T09:18:55.801Z,7152
2017-04-18T09:20:06.163Z,7700
2017-04-18T09:21:16.531Z,7540
2017-04-18T09:22:26.567Z,8936
2017-04-18T09:23:36.640Z,9296
2017-04-18T09:24:46.997Z,8216
2017-04-18T09:25:57.370Z,7500
2017-04-18T09:27:07.429Z,7464
2017-04-18T09:28:17.458Z,7820
2017-04-18T09:29:27.505Z,7388
2017-04-18T09:30:37.870Z,7180
2017-04-18T09:31:48.197Z,7120
2017-04-18T09:32:58.557Z,7212
2017-04-18T09:34:08.290Z,6664
2017-04-18T09:35:18.326Z,6580
2017-04-18T09:36:28.671Z,6824
2017-04-18T09:37:39.283Z,6908
2017-04-18T09:38:49.622Z,6760
2017-04-18T09:39:59.489Z,6732
2017-04-18T09:41:09.516Z,6784
2017-04-18T09:42:19.857Z,7352
2017-04-18T09:43:30.194Z,7724
2017-04-18T09:44:40.207Z,7904
2017-04-18T09:45:50.219Z,10940
2017-04-18T09:47:00.564Z,6824
2017-04-18T09:48:10.596Z,6656
2017-04-18T09:49:20.941Z,6864
2017-04-18T09:50:31.289Z,7240
2017-04-18T09:51:41.611Z,8104
2017-04-18T09:52:51.941Z,9456
2017-04-18T09:54:01.979Z,7408
2017-04-18T09:55:12.207Z,7724
2017-04-18T09:56:22.554Z,6628
2017-04-18T09:57:32.887Z,9860
2017-04-18T09:58:43.223Z,6440
2017-04-18T09:59:53.261Z,5592
2017-04-18T10:01:03.613Z,5548
2017-04-18T10:02:13.659Z,5180
2017-04-18T10:03:24.024Z,5044
2017-04-18T10:04:34.314Z,5012
2017-04-18T10:05:44.418Z,4924
2017-04-18T10:06:54.704Z,4832
2017-04-18T10:08:04.785Z,4892
2017-04-18T10:09:14.827Z,4888
2017-04-18T10:10:25.299Z,5032
2017-04-18T10:11:34.954Z,5028
2017-04-18T10:12:45.226Z,5188
2017-04-18T10:13:55.213Z,10152
2017-04-18T10:15:05.176Z,10316
2017-04-18T10:16:15.480Z,5884
2017-04-18T10:17:25.772Z,10664
2017-04-18T10:18:36.043Z,10956
2017-04-18T10:19:46.326Z,11440
2017-04-18T10:20:56.597Z,11912
2017-04-18T10:22:06.922Z,12444
2017-04-18T10:23:17.200Z,10296
2017-04-18T10:24:27.487Z,7568
2017-04-18T10:25:37.765Z,12352
2017-04-18T10:26:48.038Z,12000
2017-04-18T10:27:58.096Z,12072
2017-04-18T10:29:08.086Z,11832
2017-04-18T10:30:18.071Z,11596
2017-04-18T10:31:28.368Z,11968
2017-04-18T10:32:38.345Z,12108
2017-04-18T10:33:48.641Z,8908
2017-04-18T10:34:58.620Z,8340
2017-04-18T10:36:08.600Z,9312
2017-04-18T10:37:18.577Z,8492
2017-04-18T10:38:28.872Z,12956
2017-04-18T10:39:39.506Z,11984
2017-04-18T10:40:49.682Z,10532
2017-04-18T10:41:59.651Z,6040
2017-04-18T10:43:09.312Z,9432
2017-04-18T10:44:19.436Z,4940
2017-04-18T10:45:29.726Z,4400
2017-04-18T10:46:39.687Z,4396
2017-04-18T10:47:49.971Z,4452
2017-04-18T10:49:00.270Z,9668
2017-04-18T10:50:10.549Z,9740
2017-04-18T10:51:20.551Z,9856
2017-04-18T10:52:30.552Z,9876
2017-04-18T10:53:40.837Z,10000
2017-04-18T10:54:51.137Z,10220
2017-04-18T10:56:01.405Z,10380
2017-04-18T10:57:11.681Z,10636
2017-04-18T10:58:21.985Z,10920
2017-04-18T10:59:32.284Z,11208
2017-04-18T11:00:42.570Z,11648
2017-04-18T11:01:52.849Z,11996
2017-04-18T11:03:02.819Z,12424
2017-04-18T11:04:12.495Z,13000
2017-04-18T11:05:22.771Z,12424
2017-04-18T11:06:33.054Z,10156
2017-04-18T11:07:43.026Z,10592
2017-04-18T11:08:53.045Z,8712
2017-04-18T11:10:03.320Z,5080
2017-04-18T11:11:13.592Z,4644
2017-04-18T11:12:23.869Z,4304
2017-04-18T11:13:33.533Z,4372
2017-04-18T11:14:43.833Z,4448
2017-04-18T11:15:53.640Z,4468
2017-04-18T11:17:04.075Z,4528
2017-04-18T11:18:14.517Z,4876
2017-04-18T11:19:24.815Z,6708
2017-04-18T11:20:35.085Z,10088
2017-04-18T11:21:45.043Z,11096
2017-04-18T11:22:55.328Z,11312
2017-04-18T11:24:05.012Z,11616
2017-04-18T11:25:15.295Z,11964
2017-04-18T11:26:25.306Z,12568
2017-04-18T11:27:35.270Z,12652
2017-04-18T11:28:45.537Z,12524
2017-04-18T11:29:55.500Z,12104
2017-04-18T11:31:05.782Z,11964
2017-04-18T11:32:16.078Z,11856
2017-04-18T11:33:26.062Z,11968
2017-04-18T11:34:36.342Z,11952
2017-04-18T11:35:46.626Z,11756
2017-04-18T11:36:56.604Z,11684
2017-04-18T11:38:06.628Z,11724
2017-04-18T11:39:16.586Z,11276
2017-04-18T11:40:26.856Z,10992
2017-04-18T11:41:36.823Z,5876
2017-04-18T11:42:46.811Z,10848
2017-04-18T11:43:57.088Z,4840
2017-04-18T11:45:07.377Z,4540
2017-04-18T11:46:17.363Z,4384
2017-04-18T11:47:27.631Z,4476
2017-04-18T11:48:37.925Z,4704
2017-04-18T11:49:48.316Z,5300
2017-04-18T11:50:58.576Z,11524
2017-04-18T11:52:08.322Z,11680
2017-04-18T11:53:18.300Z,11780
2017-04-18T11:54:28.586Z,11912
2017-04-18T11:55:38.881Z,12120
2017-04-18T11:56:49.158Z,12132
2017-04-18T11:57:59.427Z,9024
2017-04-18T11:59:09.756Z,5736
2017-04-18T12:00:20.101Z,5952
2017-04-18T12:01:30.138Z,5456
2017-04-18T12:02:40.163Z,5536
2017-04-18T12:03:50.193Z,5772
2017-04-18T12:05:00.535Z,6152
2017-04-18T12:06:10.568Z,6412
2017-04-18T12:07:20.610Z,6752
2017-04-18T12:08:30.626Z,11432
2017-04-18T12:09:40.649Z,12216
2017-04-18T12:10:50.691Z,12060
2017-04-18T12:12:01.051Z,6964
2017-04-18T12:13:10.444Z,5712
2017-04-18T12:14:20.487Z,5832
2017-04-18T12:15:30.507Z,6024
2017-04-18T12:16:40.869Z,5928
2017-04-18T12:17:50.911Z,6928
2017-04-18T12:19:01.252Z,6144
2017-04-18T12:20:11.581Z,8060
2017-04-18T12:21:21.595Z,7484
2017-04-18T12:22:31.936Z,7980
2017-04-18T12:23:41.966Z,7932
2017-04-18T12:24:52.314Z,8532
2017-04-18T12:26:02.360Z,9468
2017-04-18T12:27:12.475Z,11372
2017-04-18T12:28:22.804Z,11700
2017-04-18T12:29:33.147Z,11428
2017-04-18T12:30:42.554Z,9816
2017-04-18T12:31:52.903Z,5888
2017-04-18T12:33:02.942Z,4184
2017-04-18T12:34:13.276Z,3352
2017-04-18T12:35:23.613Z,2724
2017-04-18T12:36:33.658Z,2336
2017-04-18T12:37:43.690Z,2136
2017-04-18T12:38:54.076Z,2048
2017-04-18T12:40:04.427Z,2120
2017-04-18T12:41:14.790Z,2552
2017-04-18T12:42:25.146Z,3324
2017-04-18T12:43:35.186Z,4064
2017-04-18T12:44:45.200Z,4608
2017-04-18T12:45:55.552Z,4876
2017-04-18T12:47:05.881Z,5140
2017-04-18T12:48:16.226Z,5496
2017-04-18T12:49:26.592Z,5952
2017-04-18T12:50:36.622Z,7668
2017-04-18T12:51:47.170Z,9796
2017-04-18T12:52:57.502Z,9332
2017-04-18T12:54:07.878Z,8632
2017-04-18T12:55:18.233Z,8980
2017-04-18T12:56:28.271Z,10284
2017-04-18T12:57:38.294Z,9956
2017-04-18T12:58:48.623Z,10288
2017-04-18T12:59:58.953Z,10452
2017-04-18T13:01:09.296Z,8916
2017-04-18T13:02:19.691Z,10736
2017-04-18T13:03:29.710Z,9756
2017-04-18T13:04:40.070Z,10680
2017-04-18T13:05:50.104Z,9464
2017-04-18T13:07:00.473Z,9368
2017-04-18T13:08:10.570Z,10952
2017-04-18T13:09:20.578Z,10052
2017-04-18T13:10:30.910Z,10232
2017-04-18T13:11:40.923Z,9868
2017-04-18T13:12:51.257Z,8592
2017-04-18T13:14:01.594Z,6928
2017-04-18T13:15:11.341Z,6584
2017-04-18T13:16:21.380Z,5708
2017-04-18T13:17:31.882Z,5500
2017-04-18T13:18:42.386Z,5016
2017-04-18T13:19:52.770Z,4688
2017-04-18T13:21:03.103Z,4460
2017-04-18T13:22:13.440Z,4356
2017-04-18T13:23:23.775Z,4304
2017-04-18T13:24:34.131Z,4372
2017-04-18T13:25:44.150Z,4488
2017-04-18T13:26:54.181Z,4800
2017-04-18T13:28:04.219Z,5312
2017-04-18T13:29:14.238Z,5820
2017-04-18T13:30:23.957Z,6144
2017-04-18T13:31:34.360Z,6368
2017-04-18T13:32:44.376Z,6364
2017-04-18T13:33:54.086Z,6260
2017-04-18T13:35:04.437Z,6060
2017-04-18T13:36:14.761Z,5848
2017-04-18T13:37:24.787Z,5752
2017-04-18T13:38:35.115Z,5828
2017-04-18T13:39:45.125Z,6196
2017-04-18T13:40:55.463Z,6432
2017-04-18T13:42:05.163Z,6968
2017-04-18T13:43:15.175Z,7536
2017-04-18T13:44:25.222Z,9012
2017-04-18T13:45:35.775Z,9412
2017-04-18T13:46:45.911Z,8704
2017-04-18T13:47:56.250Z,8776
2017-04-18T13:49:06.586Z,9028
2017-04-18T13:50:16.625Z,8460
2017-04-18T13:51:26.660Z,8352
2017-04-18T13:52:37.002Z,8664
2017-04-18T13:53:47.335Z,9068
2017-04-18T13:54:57.364Z,9588
2017-04-18T13:56:07.418Z,8912
2017-04-18T13:57:17.757Z,9088
2017-04-18T13:58:27.784Z,9448
2017-04-18T13:59:38.125Z,9440
2017-04-18T14:00:48.148Z,9404
2017-04-18T14:01:58.487Z,8656
2017-04-18T14:03:08.805Z,8148
2017-04-18T14:04:18.822Z,8168
2017-04-18T14:05:29.155Z,8096
2017-04-18T14:06:39.170Z,8048
2017-04-18T14:07:49.197Z,8008
2017-04-18T14:08:59.536Z,7984
2017-04-18T14:10:09.256Z,8448
2017-04-18T14:11:19.281Z,8712
2017-04-18T14:12:29.320Z,8844
2017-04-18T14:13:39.371Z,8824
2017-04-18T14:14:49.710Z,8704
2017-04-18T14:16:00.036Z,7056
2017-04-18T14:17:10.376Z,6312
2017-04-18T14:18:20.709Z,5280
2017-04-18T14:19:31.044Z,4996
2017-04-18T14:20:41.393Z,4132
2017-04-18T14:21:51.434Z,3724
2017-04-18T14:23:01.769Z,3304
2017-04-18T14:24:12.178Z,2988
2017-04-18T14:25:22.551Z,2744
2017-04-18T14:26:32.270Z,2608
2017-04-18T14:27:42.295Z,2684
2017-04-18T14:28:52.632Z,3120
2017-04-18T14:30:02.343Z,3756
2017-04-18T14:31:12.373Z,4444
2017-04-18T14:32:22.705Z,5072
2017-04-18T14:33:33.030Z,5556
2017-04-18T14:34:43.054Z,5888
2017-04-18T14:35:53.413Z,6196
2017-04-18T14:37:03.785Z,6592
2017-04-18T14:38:14.116Z,7092
2017-04-18T14:39:24.123Z,6380
2017-04-18T14:40:33.840Z,5904
2017-04-18T14:41:44.133Z,5224
2017-04-18T14:42:54.894Z,4696
2017-04-18T14:44:04.921Z,4172
2017-04-18T14:45:15.268Z,3812
2017-04-18T14:46:25.626Z,3612
2017-04-18T14:47:35.651Z,3492
2017-04-18T14:48:45.687Z,3480
2017-04-18T14:49:55.738Z,3540
2017-04-18T14:51:06.069Z,3512
2017-04-18T14:52:16.090Z,3392
2017-04-18T14:53:26.441Z,3324
2017-04-18T14:54:36.861Z,3228
2017-04-18T14:55:47.198Z,3076
2017-04-18T14:56:57.534Z,2892
2017-04-18T14:58:07.868Z,2700
2017-04-18T14:59:17.908Z,2536
2017-04-18T15:00:27.616Z,2416
2017-04-18T15:01:37.952Z,2340
2017-04-18T15:02:47.964Z,2240
2017-04-18T15:03:57.985Z,2112
2017-04-18T15:05:08.343Z,1952
2017-04-18T15:06:18.370Z,1772
2017-04-18T15:07:28.399Z,1500
2017-04-18T15:08:38.733Z,1156
2017-04-18T15:09:48.772Z,948
2017-04-18T15:10:58.535Z,852
2017-04-18T15:12:09.041Z,816
2017-04-18T15:13:19.365Z,716
2017-04-18T15:14:29.711Z,588
2017-04-18T15:15:40.041Z,504
2017-04-18T15:16:50.398Z,464
2017-04-18T15:18:00.740Z,420
2017-04-18T15:19:11.093Z,384
2017-04-18T15:20:21.421Z,368
2017-04-18T15:21:31.787Z,368
2017-04-18T15:22:42.147Z,384
2017-04-18T15:23:52.175Z,392
2017-04-18T15:25:02.201Z,396
2017-04-18T15:26:12.537Z,388
2017-04-18T15:27:22.563Z,368
2017-04-18T15:28:32.589Z,356
2017-04-18T15:29:42.906Z,340
2017-04-18T15:30:52.930Z,336
2017-04-18T15:32:02.947Z,344
2017-04-18T15:33:12.986Z,352
2017-04-18T15:34:23.331Z,344
2017-04-18T15:35:33.668Z,352
2017-04-18T15:36:44.015Z,372
2017-04-18T15:37:54.776Z,380
2017-04-18T15:39:05.102Z,376
2017-04-18T15:40:15.424Z,384
2017-04-18T15:41:25.764Z,448
2017-04-18T15:42:35.492Z,536
2017-04-18T15:43:45.825Z,644
2017-04-18T15:44:55.911Z,788
2017-04-18T15:46:06.252Z,956
2017-04-18T15:47:16.275Z,1088
2017-04-18T15:48:26.342Z,1168
2017-04-18T15:49:36.702Z,1236
2017-04-18T15:50:46.750Z,1404
2017-04-18T15:51:57.097Z,1896
2017-04-18T15:53:07.134Z,2172
2017-04-18T15:54:17.458Z,2408
2017-04-18T15:55:27.491Z,2668
2017-04-18T15:56:37.862Z,2964
2017-04-18T15:57:48.209Z,3256
2017-04-18T15:58:58.264Z,3500
2017-04-18T16:00:08.307Z,3628
2017-04-18T16:01:18.662Z,3676
2017-04-18T16:02:28.674Z,3628
2017-04-18T16:03:39.013Z,3524
2017-04-18T16:04:49.349Z,3404
2017-04-18T16:05:59.382Z,3280
2017-04-18T16:07:09.408Z,3164
2017-04-18T16:08:19.420Z,3088
2017-04-18T16:09:29.787Z,3016
2017-04-18T16:10:39.507Z,2948
2017-04-18T16:11:49.540Z,2892
2017-04-18T16:12:59.882Z,2864
2017-04-18T16:14:10.204Z,2836
2017-04-18T16:15:20.590Z,2808
2017-04-18T16:16:30.632Z,2792
2017-04-18T16:17:40.654Z,2788
2017-04-18T16:18:50.992Z,2824
2017-04-18T16:20:01.330Z,2956
2017-04-18T16:21:11.688Z,3344
2017-04-18T16:22:21.709Z,3672